Archival Weather

Kayes/Dag-Dag

Kayes/Dag-Dag, Mali (GAKD)

Report from: Thursday, September 21, 2023 11:00 PM UTC
Current time: Friday, February 23, 2024 7:21 PM UTC

Current weather – Weather history – Daily summaries
Weather forecast

Temperature28.0°C (82.4°F)
Heat index32.7°C (90.9°F)
Dew point25.0°C (77.0°F)
Winds 2 kts (1 m/s, 2.3 mph) North-Northwest (340°)
Clouds Sky clear
Altimeter29.94 in.Hg (1014 mB)
Relative humidity84 %
Density altitude1,893 ft. (577 m)
Remarks Ceiling and visibility OK
Flight conditions Visual Meteorological Conditions
Raw dataGAKD 212300Z 34002KT CAVOK 28/25 Q1014
An error has occurred. This application may no longer respond until reloaded. Reload 🗙